Home > Products > Valid Products > TAF

000
FTUS45 KABQ 230300 AAA
TAFLVS
TAF AMD
KLVS 230320Z 2303/2324 17015KT P6SM VCSH SCT005 BKN010 OVC040
      TEMPO 2303/2306 3SM -RA BR BKN005 OVC025
     FM230600 18010KT P6SM VCFG SCT001 OVC003
     FM231000 19008KT P6SM SCT003 BKN025
     FM231600 20009KT P6SM SCT030
     FM232100 20012G18KT P6SM SCT060=



000
FTUS45 KABQ 222300
TAFABQ
TAF
KABQ 222331Z 2300/2324 28010KT P6SM VCTS FEW040 BKN060CB
      TEMPO 2300/2302 VRB15G35KT -TSRA SCT035 BKN045CB
     FM230300 12010KT P6SM VCSH SCT045 BKN060
     FM230800 13007KT P6SM SCT045 BKN070
     FM231900 23007KT P6SM SCT100=



000
FTUS45 KABQ 222300
TAFTCC
TAF
KTCC 222331Z 2300/2324 17012KT 5SM -RA SCT030 BKN050
      TEMPO 2300/2302 22013G22KT 3SM RA BKN030 OVC050
     FM230400 18010KT P6SM VCSH SCT030 BKN045
     FM230600 21009KT P6SM SCT015 BKN030
     FM231500 21012KT P6SM SCT035 BKN050
     FM231900 22015KT P6SM SCT060 BKN100=



000
FTUS45 KABQ 222300
TAFFMN
TAF
KFMN 222331Z 2300/2324 24008KT P6SM SCT050 BKN110
     FM230300 VRB05KT P6SM SCT110
     FM230800 09006KT P6SM FEW120
     FM232100 27008KT P6SM SKC=



000
FTUS45 KABQ 222300
TAFSAF
TAF
KSAF 222331Z 2300/2324 18010KT P6SM VCSH SCT050 BKN060
      TEMPO 2301/2303 VRB15G25KT -TSRA OVC040CB
     FM230300 15008KT P6SM VCSH SCT025 BKN040 OVC100
     FM230600 VRB05KT P6SM SCT025 BKN050
      TEMPO 2310/2314 BKN025
     FM232000 28010KT P6SM SCT040 BKN100=



000
FTUS45 KABQ 222300
TAFLVS
TAF
KLVS 222331Z 2300/2324 17015KT P6SM VCSH SCT005 BKN010 OVC040
      TEMPO 2300/2303 3SM -RA BR BKN005
     FM230400 18010KT P6SM SCT004 OVC015
     FM230700 18010KT P6SM VCFG SCT001 OVC003
     FM231000 19008KT P6SM SCT003 BKN025
     FM231600 20009KT P6SM SCT030
     FM232100 20012G18KT P6SM SCT060=



000
FTUS45 KABQ 222300
TAFROW
TAF
KROW 222331Z 2300/2324 15010KT 6SM BR VCSH SCT025 BKN050
      TEMPO 2300/2304 4SM -RA BR BKN030
     FM230600 18006KT P6SM SCT030 BKN050
      TEMPO 2306/2310 3SM BR SCT010 BKN025
     FM231200 18007KT P6SM SCT030 BKN050
     FM231800 17009KT P6SM SCT050 BKN100=



000
FTUS45 KABQ 222300
TAFGUP
TAF
KGUP 222331Z 2300/2324 28008KT P6SM FEW050 SCT100
     FM230300 VRB05KT P6SM SCT100
     FM231000 VRB03KT P6SM SKC
     FM231900 27008G15KT P6SM FEW100=



000
FTUS45 KABQ 222100 AAA
TAFROW
TAF AMD
KROW 222131Z 2222/2318 15010KT P6SM VCSH SCT025 BKN050
     FM230600 18006KT P6SM SCT025 BKN050=



000
FTUS45 KABQ 221800 AAA
TAFGUP
TAF AMD
KGUP 221900Z 2219/2318 24005KT P6SM VCSH SCT045 BKN060
     FM222100 27010G20KT P6SM SCT080
     FM230100 VRB05KT P6SM SCT080
     FM230800 VRB03KT P6SM SKC=



000
FTUS45 KABQ 221700
TAFSAF
TAF
KSAF 221740Z 2218/2318 15012KT P6SM VCSH SCT018 BKN030
      TEMPO 2218/2219 BKN022
     FM221900 17010KT P6SM VCSH SCT015 OVC035
     FM222100 18010KT P6SM VCTS OVC050CB
      TEMPO 2221/2301 VRB15G25KT -TSRA OVC040CB
     FM230100 15008KT P6SM VCSH SCT015 OVC040
     FM230300 VRB05KT P6SM SCT025 BKN050=



000
FTUS45 KABQ 221700
TAFLVS
TAF
KLVS 221740Z 2218/2318 17012KT 6SM -RA BR BKN006
      TEMPO 2218/2222 3SM -RA BR BKN005
     FM222300 17011G19KT P6SM VCTS SCT009 OVC025CB
      TEMPO 2223/2302 VRB15G25KT 3SM -TSRA BR BKN015CB
     FM230200 18010KT P6SM SCT002 OVC015
     FM230500 18010KT P6SM VCFG SCT001 OVC003
     FM231000 19008KT P6SM SCT003 BKN025=



000
FTUS45 KABQ 221700
TAFROW
TAF
KROW 221740Z 2218/2318 12008KT P6SM -SHRA SCT015 OVC035
      TEMPO 2218/2222 13010KT 4SM -RA BR SCT007 OVC015
     FM222200 15010KT P6SM VCSH SCT015 BKN025
     FM230600 18006KT P6SM SCT025 BKN050=



000
FTUS45 KABQ 221700
TAFFMN
TAF
KFMN 221740Z 2218/2318 17007KT P6SM BKN070
     FM222000 25011KT P6SM SCT080
     FM230100 VRB05KT P6SM SKC
     FM230800 08006KT P6SM SKC=



000
FTUS45 KABQ 221700
TAFGUP
TAF
KGUP 221740Z 2218/2318 24005KT P6SM VCSH SCT045 BKN060
      TEMPO 2218/2220 4SM -TSRA BKN040CB
     FM222100 27010G20KT P6SM SCT080
     FM230100 VRB05KT P6SM SCT080
     FM230800 VRB03KT P6SM SKC=



000
FTUS45 KABQ 221700
TAFTCC
TAF
KTCC 221740Z 2218/2318 16010KT P6SM OVC015
     FM230000 17010KT P6SM SCT015 OVC025
     FM230400 21010KT P6SM OVC015
     FM231500 21010KT P6SM SCT035 BKN050=



000
FTUS45 KABQ 221700
TAFABQ
TAF
KABQ 221740Z 2218/2318 15010KT P6SM VCSH SCT040 BKN060
     FM222100 18010KT P6SM VCTS BKN050CB
      TEMPO 2221/2301 VRB15G25KT -TSRA SCT035 BKN050CB
     FM230100 12010KT P6SM VCSH SCT045 BKN060
     FM230300 VRB05KT P6SM SCT045 BKN070=



000
FTUS45 KABQ 221500 AAA
TAFLVS
TAF AMD
KLVS 221535Z 2216/2312 17010KT P6SM -SHRA SCT006 BKN012
      TEMPO 2216/2218 6SM -RA BR BKN006
     FM222100 15015G25KT P6SM VCTS SCT015 OVC040CB
     FM230000 18010KT P6SM VCSH SCT002 OVC015
     FM230200 18010KT P6SM VCFG SCT001 OVC003
     FM230800 21005KT P6SM SCT003 BKN025=



000
FTUS45 KABQ 221100
TAFTCC
TAF
KTCC 221135Z 2212/2312 12010KT P6SM OVC015
      TEMPO 2213/2217 4SM BR SCT004 OVC007
     FM221800 15010KT P6SM OVC015
     FM230000 15010KT P6SM SCT015 OVC040
     FM230200 18010KT P6SM SCT015 OVC025
     FM230700 21010KT P6SM SCT025 OVC040=



000
FTUS45 KABQ 221100
TAFROW
TAF
KROW 221135Z 2212/2312 06005KT P6SM VCSH FEW040 BKN060
      TEMPO 2214/2217 09010KT 4SM -RA BR SCT007 OVC025
     FM222000 18010G20KT P6SM VCSH FEW025 OVC040
     FM222200 18010G20KT P6SM VCTS FEW025 BKN040CB
     FM230000 15010KT P6SM VCSH SCT025 OVC040
     FM230900 24005KT P6SM BKN080=



000
FTUS45 KABQ 221100
TAFSAF
TAF
KSAF 221135Z 2212/2312 15005KT P6SM OVC035
     FM221500 15010KT P6SM VCSH SCT007 OVC025
     FM221700 15010KT P6SM VCSH SCT004 OVC015
     FM221900 18010KT P6SM VCSH SCT015 OVC040
     FM222100 18010KT P6SM VCTS OVC050CB
     FM230000 12005KT P6SM VCFG SCT015 OVC040=



000
FTUS45 KABQ 221100
TAFFMN
TAF
KFMN 221135Z 2212/2312 09005KT P6SM VCSH BKN060 OVC080
     FM221600 21005KT P6SM VCSH SCT025 OVC070
     FM222000 27010G20KT P6SM SCT080
     FM230000 36005KT P6SM SKC=



000
FTUS45 KABQ 221100
TAFGUP
TAF
KGUP 221135Z 2212/2312 21005KT P6SM VCSH OVC040
      TEMPO 2213/2214 6SM -TSRA OVC040CB
     FM221600 24010KT P6SM SCT060
     FM221800 24005KT P6SM BKN060
     FM222000 27010G20KT P6SM SCT060
     FM230100 12005KT P6SM SCT060=



000
FTUS45 KABQ 221100
TAFABQ
TAF
KABQ 221135Z 2212/2312 09010KT P6SM BKN100
     FM221400 12010KT P6SM BKN050
     FM221900 15010KT P6SM VCSH OVC050
     FM222100 18010KT P6SM VCTS BKN050CB
     FM222300 09010KT P6SM VCSH OVC050
     FM230300 12010KT P6SM VCFG SCT015 OVC040=



000
FTUS45 KABQ 221100
TAFLVS
TAF
KLVS 221135Z 2212/2312 12005KT 2SM -RA OVC007
      TEMPO 2212/2214 4SM -RA BR SCT001 OVC004
     FM221400 18010KT 4SM -SHRA BR SCT001 OVC004
     FM221600 15010KT 6SM -SHRA BR SCT001 OVC004
     FM222100 15015G25KT P6SM VCTS SCT015 OVC040CB
     FM230000 18010KT P6SM VCSH SCT002 OVC015
     FM230200 18010KT P6SM VCFG SCT001 OVC003
     FM230800 21005KT P6SM SCT003 BKN025=



000
FTUS45 KABQ 220900 AAA
TAFSAF
TAF AMD
KSAF 220922Z 2209/2306 18005KT P6SM OVC100
     FM221100 15010KT P6SM OVC035
     FM221800 24010G20KT P6SM BKN050
      TEMPO 2221/2301 5SM -TSRA OVC035CB
     FM230100 15010KT P6SM VCSH OVC070=



000
FTUS45 KABQ 220900 AAA
TAFLVS
TAF AMD
KLVS 220922Z 2209/2306 36005KT P6SM VCSH OVC003
     FM221100 15010KT 4SM BR OVC003
      TEMPO 2212/2215 2SM BR OVC001
     FM221800 15015G25KT P6SM VCFG OVC004
     FM222000 18015G25KT P6SM VCTS BKN050CB
     FM222300 21010KT P6SM VCSH SCT004 OVC025
     FM230500 19012KT P6SM VCSH BKN040=



000
FTUS45 KABQ 220500 RRA
TAFTCC
TAF
KTCC 220544Z 2206/2306 08005KT P6SM FEW050 BKN100
     FM220900 12008KT P6SM OVC015
     FM221700 17012KT P6SM VCSH BKN030
      TEMPO 2219/2223 4SM -TSRA OVC025CB=



000
FTUS45 KABQ 220500 RRA
TAFFMN
TAF
KFMN 220544Z 2206/2306 04003KT P6SM VCSH FEW050 SCT080 BKN100
      TEMPO 2207/2210 6SM -TSRA OVC035CB
     FM221100 09006KT P6SM BKN050
     FM221800 15007KT P6SM VCSH BKN060
     FM222100 21007KT P6SM VCTS BKN070CB
     FM230100 24007KT P6SM SCT080=



000
FTUS45 KABQ 220500 RRA
TAFROW
TAF
KROW 220544Z 2206/2306 09003KT P6SM VCSH SCT025 BKN030 OVC045
      TEMPO 2206/2210 4SM -RA BR OVC018
     FM221200 10007KT P6SM OVC015
     FM221800 15009KT P6SM VCSH BKN025
     FM222100 14010KT P6SM VCTS OVC040CB
     FM230000 15009KT P6SM BKN050=



000
FTUS45 KABQ 220500 RRA
TAFSAF
TAF
KSAF 220544Z 2206/2306 14012KT P6SM FEW045 BKN100
     FM221100 14008KT P6SM BKN030
     FM221700 17009KT P6SM BKN050
      TEMPO 2221/2301 5SM -TSRA OVC035CB
     FM230100 14011KT P6SM VCSH BKN050=



000
FTUS45 KABQ 220500 RRA
TAFABQ
TAF
KABQ 220544Z 2206/2306 09011KT P6SM FEW050 BKN100
     FM221100 09009KT P6SM BKN050
     FM221700 16008KT P6SM BKN050
      TEMPO 2221/2301 -TSRA OVC035CB
     FM230100 13008KT P6SM VCSH BKN060=



000
FTUS45 KABQ 220500 RRA
TAFGUP
TAF
KGUP 220544Z 2206/2306 31003KT P6SM VCSH SCT090 BKN120
     FM221100 VRB03KT P6SM BKN050
     FM221600 21006KT P6SM SCT050
     FM222100 24011KT P6SM VCTS BKN060CB
     FM230100 26009KT P6SM BKN070=



000
FTUS45 KABQ 220500 RRA
TAFLVS
TAF
KLVS 220544Z 2206/2306 22004KT P6SM VCSH BKN015 OVC070
      TEMPO 2206/2210 4SM -RA BR OVC008
     FM221100 10006KT P6SM OVC011
     FM221500 18009KT P6SM BKN025
     FM221800 19014KT P6SM BKN050
      TEMPO 2220/2224 5SM -TSRA OVC030CB
     FM230000 18011KT P6SM VCSH BKN040=



000
FTUS45 KABQ 220300 AAB
TAFLVS
TAF AMD
KLVS 220327Z 2203/2224 16005KT P6SM VCTS OVC025CB
     FM220500 12008KT P6SM VCSH OVC025
     FM220900 10006KT P6SM OVC012
     FM221500 18009KT P6SM BKN025
     FM221800 19014KT P6SM BKN050
      TEMPO 2220/2224 5SM -TSRA OVC030CB=



000
FTUS45 KABQ 220200 AAA
TAFSAF
TAF AMD
KSAF 220213Z 2202/2224 15012KT P6SM BKN100
     FM221100 14008KT P6SM OVC030
     FM221700 17009KT P6SM BKN050
      TEMPO 2220/2224 5SM -TSRA OVC030CB=



000
FTUS45 KABQ 220200 AAB
TAFABQ
TAF AMD
KABQ 220207Z 2202/2224 10012KT P6SM SCT050 BKN100
     FM221000 09011KT P6SM OVC040
     FM221700 16008KT P6SM BKN050
      TEMPO 2220/2224 -TSRA OVC035CB=



000
FTUS45 KABQ 220100 AAA
TAFGUP
TAF AMD
KGUP 220112Z 2201/2224 26004KT P6SM VCSH OVC080
     FM221000 VRB03KT P6SM BKN040
     FM221600 21006KT P6SM SCT050
     FM222100 24011KT P6SM VCTS BKN060CB=



000
FTUS45 KABQ 220100 AAA
TAFLVS
TAF AMD
KLVS 220103Z 2201/2224 16011KT P6SM VCSH BKN030 OVC110
     FM220500 12008KT P6SM VCSH OVC025
     FM220900 10006KT P6SM OVC012
     FM221500 18009KT P6SM BKN025
     FM221800 19014KT P6SM BKN050
      TEMPO 2220/2224 5SM -TSRA OVC030CB=



000
FTUS45 KABQ 220100 AAA
TAFROW
TAF AMD
KROW 220102Z 2201/2224 14005KT P6SM SCT015 BKN100
     FM220400 10006KT P6SM VCSH OVC015
     FM221100 03006KT 4SM BR OVC008
     FM221500 10007KT P6SM OVC015
     FM221800 15009KT P6SM VCSH BKN025
     FM222100 15010KT P6SM VCTS BKN040CB=



000
FTUS45 KABQ 220100 AAA
TAFABQ
TAF AMD
KABQ 220101Z 2201/2224 13015KT P6SM VCSH FEW040 BKN070
     FM220400 10012KT P6SM VCSH BKN050 OVC100
     FM221000 09011KT P6SM OVC040
     FM221700 16008KT P6SM BKN050
      TEMPO 2220/2224 -TSRA OVC035CB=



000
FTUS45 KABQ 212300
TAFROW
TAF
KROW 212321Z 2200/2224 07009KT P6SM VCSH SCT015 OVC040
      TEMPO 2200/2204 6SM -RA OVC015
     FM220400 10006KT P6SM VCSH OVC015
     FM221100 03006KT 4SM BR OVC008
     FM221500 10007KT P6SM OVC015
     FM221800 15009KT P6SM VCSH BKN025
     FM222100 15010KT P6SM VCTS BKN040CB=



000
FTUS45 KABQ 212300
TAFSAF
TAF
KSAF 212321Z 2200/2224 14018G26KT P6SM BKN070
     FM220300 12012KT P6SM VCSH BKN050
     FM221100 14008KT P6SM OVC030
     FM221700 17009KT P6SM BKN050
      TEMPO 2220/2224 5SM -TSRA OVC030CB=



000
FTUS45 KABQ 212300
TAFGUP
TAF
KGUP 212321Z 2200/2224 12007KT P6SM VCSH BKN060
      TEMPO 2200/2203 VRB15G30KT 5SM -TSRA OVC030CB
     FM221000 VRB03KT P6SM BKN040
     FM221600 21006KT P6SM SCT050
     FM222100 24011KT P6SM VCTS BKN060CB=



000
FTUS45 KABQ 212300
TAFTCC
TAF
KTCC 212321Z 2200/2224 08012KT P6SM VCSH BKN050
      TEMPO 2201/2205 4SM TSRA OVC025CB
     FM220700 12008KT P6SM OVC015
     FM221700 17012KT P6SM VCSH BKN030
     FM222100 18014G22KT P6SM VCTS BKN050CB=



000
FTUS45 KABQ 212300
TAFFMN
TAF
KFMN 212321Z 2200/2224 23009KT P6SM VCSH BKN080
     FM220200 14009KT P6SM VCTS BKN060CB
     FM220500 11008KT P6SM VCSH BKN080
     FM221100 09007KT P6SM BKN100
      TEMPO 2220/2224 -TSRA OVC050CB=



000
FTUS45 KABQ 212300
TAFLVS
TAF
KLVS 212321Z 2200/2224 12015KT P6SM VCSH BKN050
     FM220500 12008KT P6SM VCSH BKN025
     FM220900 10006KT P6SM OVC012
     FM221500 18009KT P6SM BKN025
     FM221800 19014KT P6SM BKN050
      TEMPO 2220/2224 5SM -TSRA OVC030CB=



000
FTUS45 KABQ 212300
TAFABQ
TAF
KABQ 212321Z 2200/2224 13016G26KT P6SM VCSH SCT050 BKN100
     FM220400 10012G22KT P6SM VCSH BKN050 OVC100
     FM221000 09011KT P6SM VCSH OVC040
     FM221700 16008KT P6SM BKN050
      TEMPO 2220/2224 -TSRA OVC035CB=



000
FTUS45 KABQ 211700
TAFROW
TAF
KROW 211732Z 2118/2218 05007KT 6SM -SHRA BR BKN050
      TEMPO 2118/2119 5SM -RA BR BKN015
     FM211900 05009KT P6SM VCSH OVC035
      TEMPO 2120/2124 VRB12G25KT 4SM -TSRA OVC025CB
     FM220100 06009KT P6SM OVC035
     FM221000 08007KT P6SM BKN015
     FM221700 12008KT P6SM VCSH OVC015=



000
FTUS45 KABQ 211700
TAFTCC
TAF
KTCC 211732Z 2118/2218 07008KT P6SM BKN025 BKN040
     FM212000 08010KT P6SM VCSH SCT025 BKN035
      TEMPO 2121/2201 VRB15G25KT 4SM -TSRA OVC030CB
     FM220900 12008KT P6SM SCT015 BKN040=



000
FTUS45 KABQ 211700
TAFFMN
TAF
KFMN 211732Z 2118/2218 10010KT P6SM SCT100
     FM212100 16011KT P6SM VCSH BKN080
     FM220130 11009KT P6SM VCTS BKN060CB
     FM220500 10008KT P6SM VCSH BKN100
     FM221000 09007KT P6SM BKN120=



000
FTUS45 KABQ 211700
TAFLVS
TAF
KLVS 211732Z 2118/2218 08010KT P6SM BKN035
     FM212100 10012KT P6SM VCSH SCT035 BKN050
      TEMPO 2122/2202 VRB15G25KT 4SM -TSRA OVC030CB
     FM220400 12008KT P6SM VCSH BKN025
     FM220900 16008KT 5SM -RA BR SCT009 BKN015=



000
FTUS45 KABQ 211700
TAFGUP
TAF
KGUP 211732Z 2118/2218 15008KT P6SM BKN090
     FM212100 16010KT P6SM VCSH BKN070
      TEMPO 2122/2202 VRB15G25KT -TSRA OVC050CB
     FM220400 VRB04KT P6SM VCSH SCT040 BKN070
     FM221000 VRB04KT P6SM BKN100=



000
FTUS45 KABQ 211700
TAFABQ
TAF
KABQ 211732Z 2118/2218 10013G23KT P6SM SCT050 SCT100
     FM212200 11014G24KT P6SM VCSH BKN060
     FM220400 09014G24KT P6SM SCT030 BKN060
     FM221500 10010KT P6SM -SHRA BKN050=



000
FTUS45 KABQ 211700
TAFSAF
TAF
KSAF 211732Z 2118/2218 13015G25KT P6SM SCT050
     FM212100 13014G24KT P6SM VCSH BKN060
     FM220400 13012G19KT P6SM BKN045
     FM221400 15010KT 6SM -RA BKN035=



000
FTUS45 KABQ 211600 AAB
TAFROW
TAF AMD
KROW 211648Z 2117/2212 04007KT 6SM -SHRA BR BKN035
      TEMPO 2117/2119 VRB15G25KT 2SM -TSRA BR BKN015CB
     FM211900 10009KT P6SM VCSH OVC035
      TEMPO 2122/2202 4SM -TSRA OVC025CB=



000
FTUS45 KABQ 211500 AAA
TAFGUP
TAF AMD
KGUP 211544Z 2116/2212 15012KT P6SM VCTS OVC080CB
      TEMPO 2116/2117 15015G25KT -SHRA BKN050
     FM211700 15008KT P6SM SCT070 BKN110
     FM212100 16010KT P6SM VCSH BKN070
      TEMPO 2122/2202 VRB18G30KT 5SM -TSRA OVC035CB
     FM220400 12007KT P6SM VCSH SCT040 BKN070=



000
FTUS45 KABQ 211500 AAA
TAFROW
TAF AMD
KROW 211504Z 2115/2212 04007KT 6SM -SHRA BR BKN035
      TEMPO 2115/2118 5SM -RA BR BKN015
     FM211900 10009KT P6SM VCSH OVC035
      TEMPO 2122/2202 4SM -TSRA OVC025CB=



000
FTUS45 KABQ 211400 AAA
TAFTCC
TAF AMD
KTCC 211500Z 2115/2212 VRB04KT P6SM OVC015
      TEMPO 2115/2117 BKN009
     FM211800 10011KT P6SM VCSH BKN040
      TEMPO 2122/2202 4SM -TSRA OVC030CB=



000
FTUS45 KABQ 211400 AAA
TAFLVS
TAF AMD
KLVS 211459Z 2115/2212 VRB05KT P6SM SCT012 BKN035
      TEMPO 2115/2117 OVC011
     FM211700 07010KT P6SM BKN040
     FM211900 10012KT P6SM VCSH BKN050
      TEMPO 2122/2202 4SM -TSRA OVC030CB
     FM220400 12008KT P6SM BKN025=



000
FTUS45 KABQ 211100
TAFTCC
TAF
KTCC 211140Z 2112/2212 VRB04KT P6SM OVC015
     FM211500 06007KT P6SM BKN030
     FM211800 10011KT P6SM VCSH BKN040
      TEMPO 2122/2202 4SM -TSRA OVC030CB=



000
FTUS45 KABQ 211100
TAFSAF
TAF
KSAF 211140Z 2112/2212 14008KT P6SM SCT020
     FM211700 14012G20KT P6SM BKN060
     FM212100 15014G24KT P6SM VCSH BKN060 PROB30 2122/2204
      VRB18G30KT -TSRA BKN040CB BKN090
     FM220400 13012G21KT P6SM BKN045=



000
FTUS45 KABQ 211100
TAFROW
TAF
KROW 211140Z 2112/2212 05009KT P6SM -RA OVC025
     FM211500 03007KT P6SM VCSH OVC025
     FM211900 10009KT P6SM VCSH OVC035
      TEMPO 2122/2202 4SM -TSRA OVC025CB=



000
FTUS45 KABQ 211100
TAFGUP
TAF
KGUP 211140Z 2112/2212 VRB05KT P6SM SCT100 BKN140
     FM211700 15008KT P6SM SCT070 BKN110
     FM212100 16010KT P6SM VCSH BKN070
      TEMPO 2122/2202 VRB18G30KT 5SM -TSRA OVC035CB
     FM220400 12007KT P6SM VCSH SCT040 BKN070=



000
FTUS45 KABQ 211100
TAFLVS
TAF
KLVS 211140Z 2112/2212 VRB05KT P6SM SCT025 SCT060
     FM211600 07010KT P6SM BKN040
     FM211900 10012KT P6SM VCSH BKN050
      TEMPO 2122/2202 4SM -TSRA OVC030CB
     FM220400 12008KT P6SM BKN025=



000
FTUS45 KABQ 211100
TAFFMN
TAF
KFMN 211140Z 2112/2212 09007KT P6SM BKN110
     FM211900 14011KT P6SM SCT080 SCT120
     FM212100 16012KT P6SM VCSH BKN070 PROB30 2122/2204 VRB18G30KT
      5SM TSRA OVC045CB
     FM220600 11009KT P6SM VCSH SCT040 BKN070=



000
FTUS45 KABQ 211100
TAFABQ
TAF
KABQ 211140Z 2112/2212 10010KT P6SM FEW040 SCT200
     FM211400 10013G23KT P6SM SCT040 SCT100
     FM212100 12014G24KT P6SM VCSH BKN070 PROB30 2122/2204
      VRB18G30KT -TSRA BKN050CB BKN100
     FM220400 09018G28KT P6SM BKN060=



000
FTUS45 KABQ 210600 AAA
TAFROW
TAF AMD
KROW 210656Z 2107/2206 02005KT P6SM VCSH BKN012 BKN050
     FM211200 VRB03KT 4SM -RA BR OVC012
     FM211500 03007KT P6SM VCSH OVC025
     FM211900 10009KT P6SM VCSH OVC035
      TEMPO 2122/2202 4SM -TSRA OVC025CB=



000
FTUS45 KABQ 210500
TAFABQ
TAF
KABQ 210530Z 2106/2206 12007KT P6SM SCT250
     FM210900 09010KT P6SM FEW050
     FM211500 10015G25KT P6SM SCT050
     FM212100 12014G24KT P6SM VCSH BKN070
      TEMPO 2122/2202 6SM -TSRA OVC035CB
     FM220300 09018G28KT P6SM BKN060=



000
FTUS45 KABQ 210500
TAFTCC
TAF
KTCC 210530Z 2106/2206 19005KT P6SM BKN250
     FM211000 VRB03KT P6SM BKN015
     FM211500 06007KT P6SM BKN030
     FM211800 10011KT P6SM VCSH BKN040
      TEMPO 2122/2202 4SM -TSRA OVC030CB=



000
FTUS45 KABQ 210500
TAFROW
TAF
KROW 210530Z 2106/2206 11007KT P6SM VCSH OVC050
     FM210900 01004KT P6SM VCSH BKN025
     FM211200 VRB03KT 4SM -RA BR OVC012
     FM211500 03007KT P6SM VCSH OVC025
     FM211900 10009KT P6SM VCSH OVC035
      TEMPO 2122/2202 4SM -TSRA OVC025CB=



000
FTUS45 KABQ 210500
TAFLVS
TAF
KLVS 210530Z 2106/2206 04003KT P6SM SCT250
     FM210900 05003KT P6SM BKN025
     FM211200 VRB03KT 4SM BR OVC012
     FM211600 07010KT P6SM BKN040
     FM211900 10012KT P6SM VCSH BKN050
      TEMPO 2122/2202 4SM -TSRA OVC030CB
     FM220400 12008KT P6SM BKN025=



000
FTUS45 KABQ 210500
TAFGUP
TAF
KGUP 210530Z 2106/2206 16007KT P6SM BKN120
     FM210900 VRB03KT P6SM SCT120
     FM211700 14007KT P6SM BKN080
     FM212100 15010KT P6SM VCSH BKN070
      TEMPO 2122/2202 5SM -TSRA OVC035CB=



000
FTUS45 KABQ 210500
TAFSAF
TAF
KSAF 210530Z 2106/2206 14009KT P6SM BKN100
     FM211000 10008KT P6SM SCT020
      TEMPO 2112/2115 BKN015
     FM211700 12012G20KT P6SM BKN060
     FM212100 13014G24KT P6SM VCSH BKN060
     FM212300 12012G20KT P6SM VCTS BKN050CB
     FM220200 13014G22KT P6SM BKN050=



000
FTUS45 KABQ 210500
TAFFMN
TAF
KFMN 210530Z 2106/2206 11011KT P6SM VCSH BKN100
     FM211000 09009KT P6SM BKN120
     FM211900 15011KT P6SM BKN080
     FM212100 15012KT P6SM VCSH BKN070
      TEMPO 2123/2203 5SM -TSRA OVC035CB=



000
FTUS45 KABQ 210200 AAA
TAFABQ
TAF AMD
KABQ 210253Z 2103/2124 11013KT P6SM FEW100
     FM210900 09012G20KT P6SM FEW050
     FM211500 10016G26KT P6SM SCT050
     FM212100 12014G24KT P6SM VCTS BKN070CB=



000
FTUS45 KABQ 202300
TAFFMN
TAF
KFMN 202336Z 2100/2124 16007KT P6SM VCSH SCT100
     FM210400 11012KT P6SM VCSH BKN090
     FM210900 09009KT P6SM BKN120
     FM211900 13011KT P6SM BKN070
     FM212200 15012KT P6SM VCTS OVC070CB=



000
FTUS45 KABQ 202300
TAFTCC
TAF
KTCC 202336Z 2100/2124 11010KT P6SM FEW060
     FM210600 03004KT P6SM BKN015
     FM211500 06007KT P6SM BKN030
     FM211800 10011KT P6SM BKN040
      TEMPO 2120/2124 4SM -TSRA OVC030CB=



000
FTUS45 KABQ 202300
TAFROW
TAF
KROW 202336Z 2100/2124 34004KT P6SM SKC
     FM210700 VRB03KT P6SM BKN025
     FM211100 02005KT 4SM BR OVC012
     FM211500 03007KT P6SM VCSH OVC025
     FM211900 10009KT P6SM VCSH OVC040
      TEMPO 2120/2124 4SM -TSRA OVC030CB=



000
FTUS45 KABQ 202300
TAFLVS
TAF
KLVS 202336Z 2100/2124 08011G20KT P6SM SCT070
     FM210300 07009KT P6SM SCT050
     FM210800 04003KT 4SM BR BKN012
     FM211600 07009KT P6SM SCT040
     FM211900 11012G20KT P6SM VCSH BKN050
      TEMPO 2120/2124 4SM -TSRA OVC030CB=



000
FTUS45 KABQ 202300
TAFABQ
TAF
KABQ 202336Z 2100/2124 12016G26KT P6SM FEW100
     FM210900 09012G20KT P6SM FEW050
     FM211500 10016G26KT P6SM SCT050
     FM212100 12014G24KT P6SM VCTS BKN070CB=



000
FTUS45 KABQ 202300
TAFSAF
TAF
KSAF 202336Z 2100/2124 13018G26KT P6SM SCT090
     FM210700 10008KT P6SM SCT050
     FM211700 12012G20KT P6SM BKN060
     FM212100 13014G24KT P6SM VCTS BKN050CB=



000
FTUS45 KABQ 202300
TAFGUP
TAF
KGUP 202336Z 2100/2124 12008KT P6SM VCSH BKN100
     FM210300 11008KT P6SM BKN120
     FM210700 VRB03KT P6SM SCT120
     FM211700 14007KT P6SM BKN070
     FM212100 17009KT P6SM VCTS OVC060CB=



000
FTUS45 KABQ 202100 AAA
TAFLVS
TAF AMD
KLVS 202149Z 2022/2118 08015G26KT P6SM SCT080
     FM210100 07011KT P6SM SCT050
     FM210800 VRB05KT 5SM BR BKN015
     FM211500 05008KT P6SM SCT040 SCT080=



000
FTUS45 KABQ 202100 AAA
TAFFMN
TAF AMD
KFMN 202147Z 2022/2118 21010KT P6SM VCTS SCT100CB
      TEMPO 2022/2023 -SHRA BKN100
     FM202330 14010KT P6SM SCT100
     FM210400 11012KT P6SM VCSH BKN080
     FM210800 09009KT P6SM BKN120=



000
FTUS45 KABQ 201700
TAFSAF
TAF
KSAF 201736Z 2018/2118 36010KT P6SM SKC
     FM202030 12013G22KT P6SM FEW080
     FM210030 12020G30KT P6SM VCSH SCT050 BKN080
     FM210600 12010G18KT P6SM SCT035 BKN060=



000
FTUS45 KABQ 201700
TAFROW
TAF
KROW 201736Z 2018/2118 36006KT P6SM BKN015 BKN035
      TEMPO 2018/2020 SCT015
     FM202000 02010KT P6SM SCT015 BKN040
     FM210500 01007KT P6SM VCFG SCT004 OVC020
     FM211200 02007KT 4SM BR VCSH SCT003 OVC015=



000
FTUS45 KABQ 201700
TAFGUP
TAF
KGUP 201736Z 2018/2118 VRB05KT P6SM FEW100
     FM202100 08010KT P6SM VCSH BKN100
     FM210300 11008KT P6SM SCT150
     FM210700 VRB05KT P6SM SCT120=



000
FTUS45 KABQ 201700
TAFFMN
TAF
KFMN 201736Z 2018/2118 VRB06KT P6SM SKC
     FM202230 21010KT P6SM SCT100
     FM210400 11012KT P6SM VCSH BKN080
     FM210800 09009KT P6SM BKN120=



000
FTUS45 KABQ 201700
TAFTCC
TAF
KTCC 201736Z 2018/2118 03005KT P6SM FEW035
     FM201900 08010KT P6SM FEW040
     FM210600 03005KT P6SM BKN015
     FM211500 06007KT P6SM BKN040=



000
FTUS45 KABQ 201700
TAFABQ
TAF
KABQ 201736Z 2018/2118 VRB05KT P6SM SKC
     FM201930 09010KT P6SM FEW070
     FM202200 09013G24KT P6SM SCT090
     FM210030 09018G30KT P6SM FEW050 SCT140
     FM210700 09016G27KT P6SM SCT035 BKN080=



000
FTUS45 KABQ 201700
TAFLVS
TAF
KLVS 201736Z 2018/2118 06011KT P6SM SKC
     FM202000 08010G17KT P6SM SCT060
     FM210000 07009KT P6SM SCT050
     FM210800 VRB05KT 5SM BR BKN015
     FM211500 05008KT P6SM SCT040 SCT080=



000
FTUS45 KABQ 201500 AAA
TAFLVS
TAF AMD
KLVS 201523Z 2015/2112 36005KT P6SM SKC
     FM201700 06005KT P6SM SKC
     FM201930 09010G20KT P6SM SCT060
     FM210000 07009KT P6SM SCT050=



000
FTUS45 KABQ 201300 AAA
TAFROW
TAF AMD
KROW 201307Z 2013/2112 36005KT P6SM SCT005 OVC010
      TEMPO 2013/2015 5SM BR OVC005
     FM201500 36005KT 6SM BR SCT002 OVC015
     FM201800 36010KT P6SM SCT015 BKN040
     FM210500 36005KT P6SM VCFG SCT004 OVC020=



000
FTUS45 KABQ 201100 RRA
TAFSAF
TAF
KSAF 201140Z 2012/2112 02007KT P6SM FEW025
     FM202030 12014G24KT P6SM SKC
     FM210030 12020G30KT P6SM SCT050
     FM210900 12009G20KT P6SM VCSH SCT035 BKN060=



000
FTUS45 KABQ 201100 RRA
TAFABQ
TAF
KABQ 201140Z 2012/2112 02005KT P6SM FEW030
     FM201500 VRB05KT P6SM SKC
     FM202200 09013G24KT P6SM SCT090
     FM210030 09020G32KT P6SM SCT050 SCT140
     FM210900 09016G27KT P6SM SCT035 SCT080 BKN100=



000
FTUS45 KABQ 201100 RRA
TAFROW
TAF
KROW 201140Z 2012/2112 36005KT P6SM SCT005 OVC010
      TEMPO 2012/2014 5SM BR OVC007
     FM201500 36005KT 6SM BR SCT002 OVC015
     FM201800 36010KT P6SM SCT015 BKN040
     FM210500 36005KT P6SM VCFG SCT004 OVC040=



000
FTUS45 KABQ 201100 RRA
TAFLVS
TAF
KLVS 201140Z 2012/2112 VRB05KT P6SM BKN008
      TEMPO 2012/2015 4SM BR OVC003
     FM201500 36005KT P6SM VCFG SCT010 BKN025
     FM201700 06005KT P6SM SCT025
     FM201930 09010G20KT P6SM SCT040
     FM210000 07009KT P6SM SCT025 SCT050=



000
FTUS45 KABQ 201100 RRA
TAFFMN
TAF
KFMN 201140Z 2012/2112 10007KT P6SM SKC
     FM202230 21010KT P6SM SCT100
     FM210400 11012KT P6SM VCSH BKN080=



000
FTUS45 KABQ 201100 RRA
TAFTCC
TAF
KTCC 201140Z 2012/2112 24005KT P6SM VCFG SCT002 OVC015
     FM201500 03005KT P6SM SCT015 BKN040
     FM201800 09010KT P6SM SCT040=



000
FTUS45 KABQ 201100 RRA
TAFGUP
TAF
KGUP 201140Z 2012/2112 18005KT P6SM FEW100
     FM202100 08010KT P6SM BKN080
     FM210300 11008KT P6SM VCSH SCT060 BKN080=



000
FTUS45 KABQ 200700 AAA
TAFLVS
TAF AMD
KLVS 200728Z 2007/2106 20009KT P6SM BKN007
      TEMPO 2008/2012 4SM BR OVC002
     FM201400 36005KT P6SM VCFG SCT004 BKN025
     FM201600 06005KT P6SM SCT025
     FM202000 09010G20KT P6SM SKC
     FM210000 06010KT P6SM SCT025 SCT050=



000
FTUS45 KABQ 200500
TAFLVS
TAF
KLVS 200520Z 2006/2106 21010KT P6SM BKN015
      TEMPO 2006/2009 SCT015
     FM200900 18005KT P6SM VCFG SCT004 SCT025
     FM201200 36005KT P6SM VCFG SCT004 BKN025
     FM201600 06005KT P6SM SCT025
     FM202000 09010G20KT P6SM SKC
     FM210000 06010KT P6SM SCT025 SCT050=



000
FTUS45 KABQ 200500
TAFGUP
TAF
KGUP 200520Z 2006/2106 18005KT P6SM SCT100
     FM202200 06010KT P6SM VCSH BKN080
     FM210300 09010KT P6SM SCT060=



000
FTUS45 KABQ 200500
TAFABQ
TAF
KABQ 200520Z 2006/2106 09010KT P6SM SKC
     FM201100 03005KT P6SM FEW025
     FM201400 36005KT P6SM SKC
     FM202100 09015G25KT P6SM SKC
     FM210100 09020G30KT P6SM SCT050
     FM210500 09020G30KT P6SM SCT025 BKN050=



000
FTUS45 KABQ 200500
TAFFMN
TAF
KFMN 200520Z 2006/2106 27005KT P6SM SKC
     FM202200 21010KT P6SM SCT100
     FM210400 12010KT P6SM VCSH BKN080=



000
FTUS45 KABQ 200500
TAFROW
TAF
KROW 200520Z 2006/2106 03005KT P6SM VCFG BKN015 OVC040
     FM201000 36005KT 6SM BR SCT002 OVC007
      TEMPO 2011/2014 4SM BR
     FM201500 36005KT 6SM BR SCT002 OVC015
     FM201800 36010KT P6SM SCT015 BKN040
     FM210500 36005KT P6SM VCFG SCT004 OVC040=



000
FTUS45 KABQ 200500
TAFTCC
TAF
KTCC 200520Z 2006/2106 18010KT P6SM VCFG SCT015
      TEMPO 2006/2009 6SM BR SCT002 OVC015
     FM200900 24005KT P6SM VCFG SCT002 OVC015
     FM201500 03005KT P6SM SCT015 BKN040
     FM201800 09010KT P6SM SCT040=



000
FTUS45 KABQ 200500
TAFSAF
TAF
KSAF 200520Z 2006/2106 12010KT P6SM SKC
     FM201300 36005KT P6SM SKC
     FM202000 09015G25KT P6SM SKC
     FM210200 12020G30KT P6SM SCT050=



    US Dept of Commerce
    National Oceanic and Atmospheric Administration
    National Weather Service
    1325 East West Highway
    Silver Spring, MD 20910
    Page Author: NWS Internet Services Team
Disclaimer
Information Quality
Credits
Glossary
Privacy Policy
Freedom of Information Act (FOIA)
About Us
Career Opportunities